Wetterdaten: Woche 19.06.23 - 25.06.23 (KW25)
Datum Zeit Temp. A. Feuchte A. Luftdruck Regen Wind Richtung Taupunkt Windchill
19.06.2023 00:00 19,9 C 52 % 1019 hPa 0,0 l/m 0,0 km/h (0 Bft) O 9,6 C 19,9 C
19.06.2023 01:00 19,4 C 53 % 1018 hPa 0,0 l/m 0,0 km/h (0 Bft) O-NO 9,4 C 19,4 C
19.06.2023 02:00 18,9 C 54 % 1018 hPa 0,0 l/m 0,0 km/h (0 Bft) O-NO 9,5 C 18,9 C
19.06.2023 03:00 18,9 C 56 % 1018 hPa 0,0 l/m 0,0 km/h (0 Bft) O-NO 9,8 C 18,9 C
19.06.2023 04:00 18,9 C 57 % 1018 hPa 0,0 l/m 0,0 km/h (0 Bft) O-NO 10,1 C 18,9 C
19.06.2023 05:00 18,9 C 58 % 1018 hPa 0,0 l/m 0,0 km/h (0 Bft) O-NO 10,4 C 18,9 C
19.06.2023 06:00 19,0 C 59 % 1018 hPa 0,0 l/m 0,0 km/h (0 Bft) O-NO 10,9 C 19,0 C
19.06.2023 07:00 19,3 C 60 % 1018 hPa 0,0 l/m 0,0 km/h (0 Bft) O-NO 11,3 C 19,3 C
19.06.2023 08:00 19,5 C 62 % 1018 hPa 0,0 l/m 0,0 km/h (0 Bft) S-SO 12,0 C 19,5 C
19.06.2023 09:00 21,8 C 59 % 1019 hPa 0,0 l/m 1,4 km/h (1 Bft) O-SO 13,3 C 21,7 C
19.06.2023 10:00 24,1 C 53 % 1019 hPa 0,0 l/m 0,0 km/h (0 Bft) S-SO 13,9 C 24,1 C
19.06.2023 11:00 26,1 C 49 % 1019 hPa 0,0 l/m 0,0 km/h (0 Bft) SW 14,5 C 26,1 C
19.06.2023 12:00 27,7 C 46 % 1019 hPa 0,0 l/m 0,0 km/h (0 Bft) W-SW 14,8 C 27,7 C
19.06.2023 13:00 28,6 C 44 % 1019 hPa 0,0 l/m 0,0 km/h (0 Bft) W 15,0 C 28,6 C
19.06.2023 14:00 30,5 C 41 % 1018 hPa 0,0 l/m 0,3 km/h (0 Bft) N 15,7 C 30,5 C
19.06.2023 15:00 31,8 C 39 % 1018 hPa 0,0 l/m 0,0 km/h (0 Bft) W-SW 16,1 C 31,8 C
19.06.2023 16:00 30,6 C 42 % 1018 hPa 0,0 l/m 0,0 km/h (0 Bft) W-SW 16,2 C 30,6 C
19.06.2023 17:00 29,7 C 44 % 1018 hPa 0,0 l/m 0,0 km/h (0 Bft) S 16,1 C 29,7 C
19.06.2023 18:00 28,9 C 47 % 1018 hPa 0,0 l/m 0,0 km/h (0 Bft) S-SW 16,5 C 28,9 C
19.06.2023 19:00 28,3 C 50 % 1018 hPa 0,0 l/m 0,0 km/h (0 Bft) S-SW 16,8 C 28,3 C
19.06.2023 20:00 27,1 C 53 % 1018 hPa 0,0 l/m 0,0 km/h (0 Bft) S-SW 16,6 C 27,1 C
19.06.2023 21:00 25,3 C 57 % 1018 hPa 0,0 l/m 0,0 km/h (0 Bft) S-SW 16,1 C 25,3 C
19.06.2023 22:00 23,3 C 63 % 1019 hPa 0,0 l/m 0,0 km/h (0 Bft) S-SW 15,8 C 23,3 C
19.06.2023 23:00 22,4 C 66 % 1019 hPa 0,0 l/m 0,0 km/h (0 Bft) S 15,7 C 22,4 C
20.06.2023 00:00 21,6 C 68 % 1019 hPa 0,0 l/m 0,0 km/h (0 Bft) S 15,5 C 21,6 C
20.06.2023 01:00 21,3 C 69 % 1019 hPa 0,0 l/m 0,0 km/h (0 Bft) O-NO 15,3 C 21,3 C
20.06.2023 02:00 20,3 C 70 % 1019 hPa 0,0 l/m 0,0 km/h (0 Bft) O-NO 14,6 C 20,3 C
20.06.2023 03:00 19,5 C 72 % 1019 hPa 0,0 l/m 0,0 km/h (0 Bft) O-NO 14,3 C 19,5 C
20.06.2023 04:00 19,1 C 74 % 1019 hPa 0,0 l/m 0,0 km/h (0 Bft) O-NO 14,2 C 19,1 C
20.06.2023 05:00 19,0 C 75 % 1019 hPa 0,0 l/m 0,0 km/h (0 Bft) O-NO 14,4 C 19,0 C
20.06.2023 06:00 19,5 C 75 % 1019 hPa 0,0 l/m 0,0 km/h (0 Bft) O-NO 15,0 C 19,5 C
20.06.2023 07:00 20,0 C 76 % 1020 hPa 0,0 l/m 0,0 km/h (0 Bft) SO 15,6 C 20,0 C
20.06.2023 08:00 19,0 C 80 % 1020 hPa 0,0 l/m 0,0 km/h (0 Bft) SW 15,4 C 19,0 C
20.06.2023 09:00 19,0 C 85 % 1020 hPa 0,5 l/m 0,0 km/h (0 Bft) O-NO 16,4 C 19,0 C
20.06.2023 10:00 21,6 C 82 % 1019 hPa 0,0 l/m 0,0 km/h (0 Bft) N 18,3 C 21,6 C
20.06.2023 11:00 23,8 C 75 % 1019 hPa 0,0 l/m 0,6 km/h (0 Bft) N-NO 19,0 C 23,8 C
20.06.2023 12:00 26,6 C 69 % 1019 hPa 0,0 l/m 1,3 km/h (1 Bft) O-SO 20,3 C 26,5 C
20.06.2023 13:00 27,3 C 65 % 1019 hPa 0,0 l/m 1,3 km/h (1 Bft) N 20,2 C 27,2 C
20.06.2023 14:00 23,2 C 82 % 1018 hPa 0,5 l/m 4,2 km/h (1 Bft) N 19,8 C 22,8 C
20.06.2023 15:00 25,3 C 86 % 1018 hPa 0,0 l/m 0,5 km/h (0 Bft) O 22,7 C 25,3 C
20.06.2023 16:00 27,6 C 75 % 1018 hPa 0,0 l/m 0,0 km/h (0 Bft) NO 22,7 C 27,6 C
20.06.2023 17:00 29,7 C 66 % 1018 hPa 0,0 l/m 0,0 km/h (0 Bft) N-NO 22,6 C 29,7 C
20.06.2023 18:00 29,3 C 63 % 1017 hPa 0,0 l/m 0,0 km/h (0 Bft) O-SO 21,4 C 29,3 C
20.06.2023 19:00 28,0 C 64 % 1017 hPa 0,0 l/m 0,0 km/h (0 Bft) O-SO 20,4 C 28,0 C
20.06.2023 20:00 26,5 C 67 % 1017 hPa 0,0 l/m 0,0 km/h (0 Bft) O-SO 19,8 C 26,5 C
20.06.2023 21:00 24,9 C 69 % 1017 hPa 0,0 l/m 0,0 km/h (0 Bft) O 18,8 C 24,9 C
20.06.2023 22:00 23,6 C 72 % 1017 hPa 0,0 l/m 0,0 km/h (0 Bft) O 18,2 C 23,6 C
20.06.2023 23:00 23,1 C 74 % 1017 hPa 0,0 l/m 0,0 km/h (0 Bft) O 18,2 C 23,1 C
21.06.2023 00:00 23,0 C 75 % 1017 hPa 0,0 l/m 0,0 km/h (0 Bft) O-SO 18,2 C 23,0 C
21.06.2023 01:00 21,7 C 79 % 1017 hPa 0,5 l/m 0,0 km/h (0 Bft) W 17,9 C 21,7 C
21.06.2023 02:00 20,2 C 85 % 1018 hPa 0,0 l/m 0,0 km/h (0 Bft) W 17,5 C 20,2 C
21.06.2023 03:00 18,8 C 87 % 1018 hPa 0,0 l/m 0,0 km/h (0 Bft) W 16,6 C 18,8 C
21.06.2023 04:00 18,3 C 88 % 1018 hPa 0,0 l/m 0,0 km/h (0 Bft) S-SW 16,2 C 18,3 C
21.06.2023 05:00 18,1 C 88 % 1019 hPa 0,5 l/m 0,0 km/h (0 Bft) S-SW 16,1 C 18,1 C
21.06.2023 06:00 18,2 C 88 % 1019 hPa 0,0 l/m 0,0 km/h (0 Bft) SO 16,2 C 18,2 C
21.06.2023 07:00 19,7 C 87 % 1020 hPa 0,0 l/m 0,0 km/h (0 Bft) S-SO 17,5 C 19,7 C
21.06.2023 08:00 21,4 C 84 % 1021 hPa 0,0 l/m 0,0 km/h (0 Bft) S 18,5 C 21,4 C
21.06.2023 09:00 23,3 C 77 % 1021 hPa 0,0 l/m 1,8 km/h (1 Bft) W-SW 18,9 C 23,1 C
21.06.2023 10:00 25,0 C 70 % 1021 hPa 0,0 l/m 0,0 km/h (0 Bft) NW 19,0 C 25,0 C
21.06.2023 11:00 26,6 C 62 % 1021 hPa 0,0 l/m 0,0 km/h (0 Bft) N 18,8 C 26,6 C
21.06.2023 12:00 27,5 C 58 % 1022 hPa 0,0 l/m 0,0 km/h (0 Bft) NW 18,5 C 27,5 C
21.06.2023 13:00 27,7 C 56 % 1022 hPa 0,0 l/m 1,8 km/h (1 Bft) NW 18,2 C 27,6 C
21.06.2023 14:00 28,0 C 56 % 1022 hPa 0,0 l/m 0,0 km/h (0 Bft) W-NW 18,5 C 28,0 C
21.06.2023 15:00 28,1 C 55 % 1022 hPa 0,0 l/m 0,0 km/h (0 Bft) N-NW 18,1 C 28,1 C
21.06.2023 16:00 27,7 C 55 % 1022 hPa 0,0 l/m 0,2 km/h (0 Bft) NW 17,8 C 27,7 C
21.06.2023 17:00 27,4 C 55 % 1022 hPa 0,0 l/m 0,1 km/h (0 Bft) N-NW 17,6 C 27,4 C
21.06.2023 18:00 27,6 C 56 % 1023 hPa 0,0 l/m 0,0 km/h (0 Bft) N-NW 18,0 C 27,6 C
21.06.2023 19:00 27,6 C 56 % 1023 hPa 0,0 l/m 0,0 km/h (0 Bft) W-SW 18,1 C 27,6 C
21.06.2023 20:00 26,3 C 57 % 1023 hPa 0,0 l/m 0,0 km/h (0 Bft) W-SW 17,2 C 26,3 C
21.06.2023 21:00 24,2 C 63 % 1023 hPa 0,0 l/m 0,0 km/h (0 Bft) W-SW 16,6 C 24,2 C
21.06.2023 22:00 22,2 C 68 % 1024 hPa 0,0 l/m 0,0 km/h (0 Bft) SO 16,1 C 22,2 C
21.06.2023 23:00 20,9 C 73 % 1024 hPa 0,0 l/m 0,0 km/h (0 Bft) NO 15,9 C 20,9 C
22.06.2023 00:00 19,6 C 76 % 1024 hPa 0,0 l/m 0,0 km/h (0 Bft) O-SO 15,3 C 19,6 C
22.06.2023 01:00 18,7 C 79 % 1024 hPa 0,0 l/m 0,0 km/h (0 Bft) O-SO 14,9 C 18,7 C
22.06.2023 02:00 18,3 C 81 % 1024 hPa 0,0 l/m 0,0 km/h (0 Bft) O-SO 14,9 C 18,3 C
22.06.2023 03:00 17,7 C 82 % 1024 hPa 0,0 l/m 0,0 km/h (0 Bft) O-SO 14,6 C 17,7 C
22.06.2023 04:00 17,0 C 84 % 1024 hPa 0,0 l/m 0,0 km/h (0 Bft) O-SO 14,2 C 17,0 C
22.06.2023 05:00 16,8 C 85 % 1024 hPa 0,0 l/m 0,0 km/h (0 Bft) O-SO 14,3 C 16,8 C
22.06.2023 06:00 17,4 C 86 % 1024 hPa 0,0 l/m 0,0 km/h (0 Bft) O-SO 15,1 C 17,4 C
22.06.2023 07:00 19,3 C 86 % 1023 hPa 0,0 l/m 0,0 km/h (0 Bft) O-NO 17,0 C 19,3 C
22.06.2023 08:00 21,8 C 83 % 1023 hPa 0,0 l/m 0,0 km/h (0 Bft) SO 18,8 C 21,8 C
22.06.2023 09:00 24,5 C 74 % 1023 hPa 0,0 l/m 0,0 km/h (0 Bft) O-SO 19,4 C 24,5 C
22.06.2023 10:00 26,4 C 65 % 1023 hPa 0,0 l/m 0,4 km/h (0 Bft) O-SO 19,3 C 26,4 C
22.06.2023 11:00 28,6 C 57 % 1022 hPa 0,0 l/m 0,0 km/h (0 Bft) NO 19,3 C 28,6 C
22.06.2023 12:00 30,0 C 54 % 1022 hPa 0,0 l/m 1,4 km/h (1 Bft) N-NO 19,5 C 30,0 C
22.06.2023 13:00 30,9 C 52 % 1021 hPa 0,0 l/m 1,2 km/h (1 Bft) N-NO 19,8 C 30,9 C
22.06.2023 14:00 32,1 C 50 % 1020 hPa 0,0 l/m 1,0 km/h (0 Bft) O-SO 20,2 C 32,1 C
22.06.2023 15:00 32,4 C 47 % 1020 hPa 0,0 l/m 0,0 km/h (0 Bft) O-NO 19,7 C 32,4 C
22.06.2023 16:00 32,1 C 47 % 1019 hPa 0,0 l/m 0,5 km/h (0 Bft) O-NO 19,4 C 32,1 C
22.06.2023 17:00 32,3 C 48 % 1018 hPa 0,0 l/m 5,2 km/h (1 Bft) O-NO 19,8 C 32,3 C
22.06.2023 18:00 31,0 C 49 % 1017 hPa 0,0 l/m 0,5 km/h (0 Bft) O-SO 19,1 C 31,0 C
22.06.2023 19:00 29,7 C 53 % 1016 hPa 0,0 l/m 0,2 km/h (0 Bft) O-SO 19,0 C 29,7 C
22.06.2023 20:00 28,2 C 57 % 1016 hPa 0,0 l/m 1,1 km/h (1 Bft) O-NO 18,8 C 28,2 C
22.06.2023 21:00 27,0 C 60 % 1015 hPa 0,0 l/m 0,2 km/h (0 Bft) O 18,5 C 27,0 C
22.06.2023 22:00 25,6 C 63 % 1016 hPa 0,0 l/m 5,5 km/h (1 Bft) N-NO 18,1 C 25,1 C
22.06.2023 23:00 21,2 C 76 % 1018 hPa 10,9 l/m 0,0 km/h (0 Bft) N-NO 16,8 C 21,2 C
23.06.2023 00:00 19,3 C 85 % 1018 hPa 3,6 l/m 0,0 km/h (0 Bft) N 16,7 C 19,3 C
23.06.2023 01:00 18,9 C 89 % 1017 hPa 6,2 l/m 0,0 km/h (0 Bft) O-SO 17,0 C 18,9 C
23.06.2023 02:00 18,9 C 90 % 1017 hPa 0,0 l/m 0,2 km/h (0 Bft) O-SO 17,1 C 18,9 C
23.06.2023 03:00 18,8 C 90 % 1017 hPa 0,0 l/m 0,0 km/h (0 Bft) O-SO 17,1 C 18,8 C
23.06.2023 04:00 18,6 C 91 % 1016 hPa 0,0 l/m 0,0 km/h (0 Bft) O-SO 17,1 C 18,6 C
23.06.2023 05:00 18,4 C 92 % 1017 hPa 0,0 l/m 0,0 km/h (0 Bft) S 17,0 C 18,4 C
23.06.2023 06:00 18,4 C 92 % 1017 hPa 0,0 l/m 0,0 km/h (0 Bft) S-SW 17,1 C 18,4 C
23.06.2023 07:00 18,0 C 92 % 1017 hPa 0,0 l/m 0,0 km/h (0 Bft) SW 16,6 C 18,0 C
23.06.2023 08:00 17,4 C 91 % 1018 hPa 0,0 l/m 0,0 km/h (0 Bft) SW 15,9 C 17,4 C
23.06.2023 09:00 18,0 C 89 % 1018 hPa 0,0 l/m 1,1 km/h (1 Bft) S-SW 16,1 C 18,0 C
23.06.2023 10:00 18,9 C 84 % 1018 hPa 0,0 l/m 0,8 km/h (0 Bft) SW 16,2 C 18,9 C
23.06.2023 11:00 18,3 C 84 % 1019 hPa 0,0 l/m 0,1 km/h (0 Bft) W-SW 15,5 C 18,3 C
23.06.2023 12:00 17,3 C 88 % 1019 hPa 1,6 l/m 0,0 km/h (0 Bft) W-SW 15,4 C 17,3 C
23.06.2023 13:00 16,9 C 90 % 1020 hPa 5,2 l/m 0,0 km/h (0 Bft) W-SW 15,2 C 16,9 C
23.06.2023 14:00 14,9 C 91 % 1022 hPa 3,6 l/m 0,7 km/h (0 Bft) NW 13,5 C 14,9 C
23.06.2023 15:00 14,1 C 92 % 1023 hPa 3,6 l/m 1,3 km/h (1 Bft) W-NW 12,9 C 14,1 C
23.06.2023 16:00 13,9 C 93 % 1024 hPa 4,7 l/m 2,1 km/h (1 Bft) NW 12,8 C 13,9 C
23.06.2023 17:00 14,0 C 94 % 1025 hPa 6,7 l/m 4,6 km/h (1 Bft) NW 13,0 C 13,1 C
23.06.2023 18:00 13,9 C 94 % 1026 hPa 4,7 l/m 6,5 km/h (2 Bft) N-NW 12,9 C 12,7 C
23.06.2023 19:00 14,0 C 94 % 1027 hPa 0,5 l/m 0,0 km/h (0 Bft) N-NW 13,0 C 14,0 C
23.06.2023 20:00 14,4 C 94 % 1027 hPa 0,5 l/m 0,7 km/h (0 Bft) NW 13,5 C 14,4 C
23.06.2023 21:00 14,6 C 94 % 1028 hPa 0,0 l/m 0,0 km/h (0 Bft) NW 13,6 C 14,6 C
23.06.2023 22:00 14,6 C 94 % 1028 hPa 0,0 l/m 0,0 km/h (0 Bft) NW 13,6 C 14,6 C
23.06.2023 23:00 14,6 C 94 % 1028 hPa 0,0 l/m 0,0 km/h (0 Bft) NW 13,6 C 14,6 C
24.06.2023 00:00 13,9 C 94 % 1028 hPa 0,0 l/m 0,0 km/h (0 Bft) NW 13,0 C 13,9 C
24.06.2023 01:00 13,3 C 94 % 1029 hPa 0,0 l/m 0,0 km/h (0 Bft) NW 12,4 C 13,3 C
24.06.2023 02:00 13,1 C 94 % 1029 hPa 0,0 l/m 0,0 km/h (0 Bft) NW 12,1 C 13,1 C
24.06.2023 03:00 12,8 C 94 % 1029 hPa 0,0 l/m 0,0 km/h (0 Bft) NW 11,8 C 12,8 C
24.06.2023 04:00 12,7 C 94 % 1028 hPa 0,0 l/m 0,0 km/h (0 Bft) NW 11,7 C 12,7 C
24.06.2023 05:00 12,1 C 94 % 1029 hPa 0,0 l/m 0,0 km/h (0 Bft) NW 11,2 C 12,1 C
24.06.2023 06:00 12,2 C 94 % 1029 hPa 0,0 l/m 0,0 km/h (0 Bft) NW 11,3 C 12,2 C
24.06.2023 07:00 13,1 C 95 % 1030 hPa 0,0 l/m 0,0 km/h (0 Bft) W-NW 12,3 C 13,1 C
24.06.2023 08:00 14,8 C 94 % 1030 hPa 0,0 l/m 0,0 km/h (0 Bft) N 13,8 C 14,8 C
24.06.2023 09:00 15,5 C 95 % 1030 hPa 0,0 l/m 2,3 km/h (1 Bft) NW 14,6 C 15,1 C
24.06.2023 10:00 17,0 C 93 % 1030 hPa 0,0 l/m 0,0 km/h (0 Bft) W-SW 15,9 C 17,0 C
24.06.2023 11:00 19,0 C 84 % 1030 hPa 0,0 l/m 0,0 km/h (0 Bft) N-NO 16,2 C 19,0 C
24.06.2023 12:00 21,5 C 72 % 1030 hPa 0,0 l/m 1,1 km/h (1 Bft) N-NW 16,1 C 21,5 C
24.06.2023 13:00 22,7 C 61 % 1029 hPa 0,0 l/m 0,1 km/h (0 Bft) N 14,8 C 22,7 C
24.06.2023 14:00 24,2 C 58 % 1029 hPa 0,0 l/m 0,2 km/h (0 Bft) NW 15,3 C 24,2 C
24.06.2023 15:00 25,5 C 55 % 1029 hPa 0,0 l/m 0,6 km/h (0 Bft) N 15,6 C 25,5 C
24.06.2023 16:00 26,1 C 52 % 1028 hPa 0,0 l/m 0,2 km/h (0 Bft) N 15,3 C 26,1 C
24.06.2023 17:00 27,1 C 51 % 1028 hPa 0,0 l/m 0,0 km/h (0 Bft) N-NW 16,2 C 27,1 C
24.06.2023 18:00 25,8 C 51 % 1028 hPa 0,0 l/m 0,0 km/h (0 Bft) NW 15,0 C 25,8 C
24.06.2023 19:00 24,2 C 54 % 1027 hPa 0,0 l/m 0,0 km/h (0 Bft) N-NO 14,4 C 24,2 C
24.06.2023 20:00 22,9 C 58 % 1027 hPa 0,0 l/m 0,0 km/h (0 Bft) N-NO 14,3 C 22,9 C
24.06.2023 21:00 21,1 C 62 % 1027 hPa 0,0 l/m 0,0 km/h (0 Bft) N-NO 13,4 C 21,1 C
24.06.2023 22:00 19,1 C 66 % 1027 hPa 0,0 l/m 0,0 km/h (0 Bft) N-NO 12,5 C 19,1 C
24.06.2023 23:00 17,4 C 71 % 1027 hPa 0,0 l/m 0,0 km/h (0 Bft) NO 12,1 C 17,4 C
25.06.2023 00:00 16,6 C 74 % 1027 hPa 0,0 l/m 0,0 km/h (0 Bft) NO 11,9 C 16,6 C
25.06.2023 01:00 16,0 C 76 % 1027 hPa 0,0 l/m 0,0 km/h (0 Bft) NO 11,7 C 16,0 C
25.06.2023 02:00 15,3 C 78 % 1027 hPa 0,0 l/m 0,0 km/h (0 Bft) NO 11,5 C 15,3 C
25.06.2023 03:00 14,7 C 79 % 1027 hPa 0,0 l/m 0,0 km/h (0 Bft) NO 11,2 C 14,7 C
25.06.2023 04:00 14,0 C 81 % 1026 hPa 0,0 l/m 0,0 km/h (0 Bft) NO 10,9 C 14,0 C
25.06.2023 05:00 13,8 C 83 % 1026 hPa 0,0 l/m 0,0 km/h (0 Bft) NO 10,9 C 13,8 C
25.06.2023 06:00 14,1 C 84 % 1026 hPa 0,0 l/m 0,0 km/h (0 Bft) W-NW 11,5 C 14,1 C
25.06.2023 07:00 15,3 C 85 % 1026 hPa 0,0 l/m 0,0 km/h (0 Bft) S-SW 12,7 C 15,3 C
25.06.2023 08:00 17,5 C 83 % 1026 hPa 0,0 l/m 0,0 km/h (0 Bft) S-SO 14,5 C 17,5 C
25.06.2023 09:00 20,2 C 76 % 1026 hPa 0,0 l/m 0,0 km/h (0 Bft) S-SO 15,7 C 20,2 C
25.06.2023 10:00 22,8 C 67 % 1026 hPa 0,0 l/m 0,0 km/h (0 Bft) S-SO 16,3 C 22,8 C
25.06.2023 11:00 25,2 C 60 % 1025 hPa 0,0 l/m 0,6 km/h (0 Bft) O-NO 16,7 C 25,2 C
25.06.2023 12:00 27,5 C 53 % 1025 hPa 0,0 l/m 0,0 km/h (0 Bft) O-SO 17,1 C 27,5 C
25.06.2023 13:00 28,8 C 49 % 1024 hPa 0,0 l/m 0,1 km/h (0 Bft) O-SO 17,0 C 28,8 C
25.06.2023 14:00 29,6 C 46 % 1024 hPa 0,0 l/m 0,0 km/h (0 Bft) O 16,7 C 29,6 C
25.06.2023 15:00 30,1 C 45 % 1023 hPa 0,0 l/m 0,0 km/h (0 Bft) NO 16,9 C 30,1 C
25.06.2023 16:00 30,3 C 44 % 1023 hPa 0,0 l/m 1,2 km/h (1 Bft) O-SO 16,6 C 30,3 C
25.06.2023 17:00 29,9 C 44 % 1023 hPa 0,0 l/m 2,0 km/h (1 Bft) O-SO 16,3 C 29,9 C
25.06.2023 18:00 27,8 C 47 % 1022 hPa 0,0 l/m 0,1 km/h (0 Bft) N-NO 15,2 C 27,8 C
25.06.2023 19:00 26,6 C 49 % 1022 hPa 0,0 l/m 0,4 km/h (0 Bft) O-SO 14,9 C 26,6 C
25.06.2023 20:00 25,3 C 52 % 1022 hPa 0,0 l/m 0,0 km/h (0 Bft) O 14,7 C 25,3 C
25.06.2023 21:00 23,3 C 55 % 1022 hPa 0,0 l/m 0,0 km/h (0 Bft) O 13,6 C 23,3 C
25.06.2023 22:00 21,5 C 59 % 1022 hPa 0,0 l/m 0,0 km/h (0 Bft) O-NO 13,2 C 21,5 C
25.06.2023 23:00 20,8 C 62 % 1022 hPa 0,0 l/m 0,0 km/h (0 Bft) O-NO 13,3 C 20,8 C
Min-Datum _ 24.06.23 19.06.23 22.06.23 - 25.06.23 - 19.06.23 23.06.23
_ Min-Zeit 05:52 15:52 22:22 - 23:02 - 01:52 17:52
Minimum _ 12,0 C 38 % 1015 hPa - 0,0 km/h (0 Bft) - 9,2 C 9,0 C
Max-Datum _ 22.06.23 24.06.23 24.06.23 22.06.23 22.06.23 - 20.06.23 22.06.23
_ Max-Zeit 17:42 09:12 13:02 23:12 22:22 - 15:52 17:42
Maximum _ 32,9 C 95 % 1030 hPa 10,9 l/m 25,6 km/h
N-NO (4 Bft)
- 23,3 C 32,9 C
Durchschnitt _ 21,9 C 70 % 1022 hPa #53,9 l/m 0,3 km/h (0 Bft) O-SO 15,7 C 21,9 C